Dudinka, Russia
Current Conditions -  °F | °C
As of 3:30 AM on Friday 30 Jan 2015 (Local Time) from USNN Reporting Station
Clear Clear  
Wind Chill: -9°   Ceiling: Unl
Heat Index:   Visibility: 6mi
Dew Point:   Wind: 16mph
Humidity: 79%   Direction: 220°SW
Pressure: 29.88"   Gusts: NA
Location:  69.41°N, 86.18°E
Report Text: USNN 292030Z 22007MPS CAVOK M13/M16 Q1012 NOSIG RMK QFE75421410138
Loading
Personal Weather Stations






























Interactive Weather Map New forecast layout! Learn more

10-Day Weather Forecast

Advertisements
Track Severe Weather on mobile